Time;durP1;ratioP1;P1;durP2;ratioP2;P2;SDS_P1;SDS_P2;PMS_P1;PMS_P2;Temp;Humidity;BMP_temperature;BMP_pressure;BME280_temperature;BME280_humidity;BME280_pressure;Samples;Min_cycle;Max_cycle;Signal;HPM_P1;HPM_P2
2023/07/09 00:02:50;;;;;;;;;;;;;;;23.36;46.47;100768.28;41623614;28;19933;-82
2023/07/09 00:22:52;;;;;;;;;;;;;;;23.09;47.40;100779.25;41728241;28;20076;-81
2023/07/09 00:42:53;;;;;;;;;;;;;;;22.92;48.12;100773.47;41779363;28;19967;-84
2023/07/09 01:02:54;;;;;;;;;;;;;;;22.77;48.86;100764.97;41779767;28;20383;-82
2023/07/09 01:22:54;;;;;;;;;;;;;;;22.56;49.47;100767.50;41768549;28;19929;-84
2023/07/09 01:42:57;;;;;;;;;;;;;;;22.33;50.37;100774.50;41752708;28;19964;-84
2023/07/09 02:02:57;;;;;;;;;;;;;;;22.22;50.41;100797.25;41783454;28;19968;-85
2023/07/09 02:22:58;;;;;;;;;;;;;;;21.95;51.00;100804.59;41647126;28;20403;-85
2023/07/09 02:42:58;;;;;;;;;;;;;;;21.80;51.34;100798.66;41599632;28;20063;-83
2023/07/09 03:02:58;;;;;;;;;;;;;;;21.68;51.89;100801.25;41584460;28;19933;-83
2023/07/09 03:22:58;;;;;;;;;;;;;;;21.52;52.20;100821.72;41656731;28;20011;-82
2023/07/09 03:42:59;;;;;;;;;;;;;;;21.58;52.60;100822.16;41763081;28;20002;-81
2023/07/09 04:02:59;;;;;;;;;;;;;;;21.63;52.82;100824.47;41745701;28;19951;-82
2023/07/09 04:23:00;;;;;;;;;;;;;;;21.79;52.64;100824.19;41744166;28;19933;-82
2023/07/09 04:43:00;;;;;;;;;;;;;;;21.88;53.02;100826.13;41770643;28;19931;-85
2023/07/09 05:03:00;;;;;;;;;;;;;;;21.90;52.13;100836.59;41786825;28;19975;-83
2023/07/09 05:23:00;;;;;;;;;;;;;;;22.20;50.18;100833.47;41785940;28;19933;-81
2023/07/09 05:43:01;;;;;;;;;;;;;;;22.54;49.66;100824.81;41758146;28;19984;-81
2023/07/09 06:03:02;;;;;;;;;;;;;;;22.93;48.83;100832.44;41735709;28;19953;-83
2023/07/09 06:23:02;;;;;;;;;;;;;;;23.29;47.08;100836.66;41674986;28;20356;-76
2023/07/09 06:43:04;;;;;;;;;;;;;;;23.67;45.76;100823.97;41596218;28;19931;-82
2023/07/09 07:03:05;;;;;;;;;;;;;;;23.98;44.27;100824.94;41556442;28;20059;-85
2023/07/09 07:23:05;;;;;;;;;;;;;;;24.23;44.81;100822.94;41767129;28;20814;-85
2023/07/09 07:43:05;;;;;;;;;;;;;;;24.46;43.88;100815.69;41862348;28;19928;-85
2023/07/09 08:03:05;;;;;;;;;;;;;;;24.69;43.74;100804.97;41824491;28;20838;-84
2023/07/09 08:23:06;;;;;;;;;;;;;;;24.92;44.26;100810.09;41648362;28;19934;-88
2023/07/09 08:43:13;;;;;;;;;;;;;;;25.15;44.24;100807.25;41585595;28;19940;-84
2023/07/09 09:03:34;;;;;;;;;;;;;;;25.30;43.16;100805.06;41620842;28;19991;-80
2023/07/09 09:23:42;;;;;;;;;;;;;;;25.49;42.74;100805.13;41674480;28;20427;-80
2023/07/09 09:43:44;;;;;;;;;;;;;;;25.57;41.96;100812.38;41757509;28;20027;-81
2023/07/09 10:03:46;;;;;;;;;;;;;;;25.71;38.42;100787.28;41746081;28;19933;-78
2023/07/09 10:24:01;;;;;;;;;;;;;;;25.84;38.03;100779.88;41802055;28;19959;-81
2023/07/09 10:44:02;;;;;;;;;;;;;;;26.13;38.78;100779.03;41785547;28;19940;-81
2023/07/09 11:04:05;;;;;;;;;;;;;;;26.42;34.06;100756.91;41763852;28;19932;-80
2023/07/09 11:24:25;;;;;;;;;;;;;;;26.73;33.59;100761.13;41729284;28;19913;-89
2023/07/09 11:44:28;;;;;;;;;;;;;;;27.17;32.09;100743.56;41825266;28;20011;-86
2023/07/09 12:04:32;;;;;;;;;;;;;;;27.25;35.51;100720.72;41848417;28;19943;-83
2023/07/09 12:24:36;;;;;;;;;;;;;;;27.53;31.92;100697.56;41804586;28;19928;-82
2023/07/09 12:44:37;;;;;;;;;;;;;;;27.88;30.47;100684.31;41759086;28;19925;-87
2023/07/09 13:04:38;;;;;;;;;;;;;;;28.13;31.25;100671.22;41800047;28;19924;-84
2023/07/09 13:24:38;;;;;;;;;;;;;;;28.23;30.29;100653.28;41813754;28;19929;-79
2023/07/09 13:44:40;;;;;;;;;;;;;;;28.12;32.90;100643.75;41820639;28;20011;-85
2023/07/09 14:04:41;;;;;;;;;;;;;;;28.16;32.77;100641.59;41856092;28;24113;-80
2023/07/09 14:24:41;;;;;;;;;;;;;;;28.19;32.99;100630.66;41836873;28;19960;-81
2023/07/09 14:44:43;;;;;;;;;;;;;;;28.28;34.65;100649.16;41833864;28;20390;-88
2023/07/09 15:04:44;;;;;;;;;;;;;;;28.25;34.91;100622.84;41814957;28;19933;-80
2023/07/09 15:24:45;;;;;;;;;;;;;;;28.40;33.90;100612.41;41789116;28;19967;-86
2023/07/09 15:44:45;;;;;;;;;;;;;;;28.51;33.27;100603.28;41820794;28;19929;-87
2023/07/09 16:04:46;;;;;;;;;;;;;;;28.64;32.85;100609.97;41841918;28;19965;-86
2023/07/09 16:24:46;;;;;;;;;;;;;;;28.58;34.17;100608.81;41808103;28;20154;-80
2023/07/09 16:44:46;;;;;;;;;;;;;;;28.47;32.19;100599.28;41851068;28;19925;-81
2023/07/09 17:04:47;;;;;;;;;;;;;;;28.43;34.00;100597.94;41839917;28;19925;-84
2023/07/09 17:24:47;;;;;;;;;;;;;;;28.34;33.06;100588.25;41870087;28;19933;-86
2023/07/09 17:44:47;;;;;;;;;;;;;;;28.18;31.22;100589.88;41835869;28;19932;-75
2023/07/09 18:04:48;;;;;;;;;;;;;;;28.06;32.17;100586.69;41852610;28;19936;-82
2023/07/09 18:24:48;;;;;;;;;;;;;;;27.99;33.43;100596.25;41845340;28;19929;-81
2023/07/09 18:44:49;;;;;;;;;;;;;;;27.89;31.98;100590.19;41807762;28;20404;-84
2023/07/09 19:04:52;;;;;;;;;;;;;;;27.82;32.22;100611.31;41817772;28;19966;-84
2023/07/09 19:24:52;;;;;;;;;;;;;;;27.78;33.56;100612.59;41796205;28;19932;-81
2023/07/09 19:44:52;;;;;;;;;;;;;;;27.72;32.97;100613.22;41768885;28;19932;-81
2023/07/09 20:04:53;;;;;;;;;;;;;;;27.68;33.40;100614.53;41764728;28;21987;-76
2023/07/09 20:24:53;;;;;;;;;;;;;;;27.56;35.09;100619.28;41814754;28;21262;-83
2023/07/09 20:45:00;;;;;;;;;;;;;;;27.43;34.56;100628.50;41848609;28;19951;-79
2023/07/09 21:05:00;;;;;;;;;;;;;;;27.29;34.54;100637.84;41778077;28;19935;-82
2023/07/09 21:25:02;;;;;;;;;;;;;;;27.03;35.42;100642.25;41810951;28;20373;-78
2023/07/09 21:45:02;;;;;;;;;;;;;;;26.84;36.55;100647.56;41864147;28;20043;-80
2023/07/09 22:05:05;;;;;;;;;;;;;;;26.65;37.06;100658.28;41863848;28;19928;-79
2023/07/09 22:25:12;;;;;;;;;;;;;;;26.42;39.03;100649.88;41745839;28;19925;-79
2023/07/09 22:45:12;;;;;;;;;;;;;;;26.20;40.40;100655.38;41656118;28;20055;-80
2023/07/09 23:05:13;;;;;;;;;;;;;;;25.80;41.33;100658.28;41638486;28;20407;-78
2023/07/09 23:25:13;;;;;;;;;;;;;;;25.60;41.67;100655.66;41729919;28;20015;-77
2023/07/09 23:45:21;;;;;;;;;;;;;;;25.45;42.15;100655.25;41759853;28;20469;-77
